RYR9437 LERS-EDLV
Flight info
| Callsign | RYR9437 |
|---|---|
| Flight time | 1h 46m |
| Altitude | 36000 |
| Route | NATPI DCT NASEP DCT ENUPA DCT RLP DCT ROUSY DCT MILGI DCT LMA LMA1W |
| Aircraft | B738/M-SDE2E3FGHIRWXY/LB1 |
Departure
| Time | 2026-05-07 09:02 |
|---|---|
| Airport | Reus Airport (LERS) |
Arrival
| Time | 2026-05-07 10:48 |
|---|---|
| Airport | Weeze (Niederrhein) Airport (EDLV) |
| Time | Latitude | Longitude | Altitude | Speed | Heading |
|---|---|---|---|---|---|
| 2026-05-07 08:38 | 41.14665 | 1.15560 | 242 ft | 0 kts | 339° |
| 2026-05-07 08:50 | 41.14658 | 1.15564 | 242 ft | 2 kts | 339° |
| 2026-05-07 08:50 | 41.14643 | 1.15572 | 242 ft | 2 kts | 339° |
| 2026-05-07 08:51 | 41.14628 | 1.15579 | 242 ft | 2 kts | 339° |
| 2026-05-07 08:51 | 41.14613 | 1.15587 | 242 ft | 2 kts | 338° |
| 2026-05-07 08:51 | 41.14597 | 1.15589 | 242 ft | 2 kts | 24° |
| 2026-05-07 08:51 | 41.14584 | 1.15576 | 242 ft | 2 kts | 59° |
| 2026-05-07 08:52 | 41.14581 | 1.15569 | 242 ft | 0 kts | 70° |
| 2026-05-07 08:53 | 41.14583 | 1.15573 | 242 ft | 1 kts | 70° |
| 2026-05-07 08:53 | 41.14587 | 1.15590 | 242 ft | 3 kts | 69° |
| 2026-05-07 08:54 | 41.14595 | 1.15619 | 242 ft | 4 kts | 69° |
| 2026-05-07 08:54 | 41.14607 | 1.15659 | 242 ft | 5 kts | 69° |
| 2026-05-07 08:54 | 41.14622 | 1.15711 | 242 ft | 7 kts | 69° |
| 2026-05-07 08:54 | 41.14640 | 1.15773 | 242 ft | 8 kts | 69° |
| 2026-05-07 08:55 | 41.14661 | 1.15844 | 242 ft | 9 kts | 69° |
| 2026-05-07 08:55 | 41.14684 | 1.15923 | 242 ft | 10 kts | 68° |
| 2026-05-07 08:55 | 41.14710 | 1.16011 | 242 ft | 11 kts | 69° |
| 2026-05-07 08:55 | 41.14738 | 1.16105 | 242 ft | 11 kts | 69° |
| 2026-05-07 08:56 | 41.14767 | 1.16206 | 242 ft | 12 kts | 69° |
| 2026-05-07 08:56 | 41.14798 | 1.16313 | 242 ft | 13 kts | 69° |
| 2026-05-07 08:56 | 41.14829 | 1.16420 | 242 ft | 12 kts | 69° |
| 2026-05-07 08:56 | 41.14861 | 1.16526 | 242 ft | 12 kts | 69° |
| 2026-05-07 08:57 | 41.14892 | 1.16634 | 242 ft | 13 kts | 68° |
| 2026-05-07 08:57 | 41.14924 | 1.16741 | 242 ft | 12 kts | 69° |
| 2026-05-07 08:57 | 41.14955 | 1.16848 | 242 ft | 13 kts | 69° |
| 2026-05-07 08:57 | 41.14988 | 1.16960 | 242 ft | 13 kts | 69° |
| 2026-05-07 08:58 | 41.15023 | 1.17078 | 242 ft | 14 kts | 69° |
| 2026-05-07 08:58 | 41.15058 | 1.17199 | 242 ft | 14 kts | 69° |
| 2026-05-07 08:58 | 41.15092 | 1.17317 | 242 ft | 13 kts | 69° |
| 2026-05-07 08:58 | 41.15125 | 1.17430 | 242 ft | 13 kts | 69° |
| 2026-05-07 08:59 | 41.15157 | 1.17540 | 242 ft | 13 kts | 69° |
| 2026-05-07 08:59 | 41.15189 | 1.17648 | 242 ft | 12 kts | 68° |
| 2026-05-07 08:59 | 41.15220 | 1.17753 | 242 ft | 12 kts | 68° |
| 2026-05-07 08:59 | 41.15251 | 1.17858 | 242 ft | 12 kts | 69° |
| 2026-05-07 09:00 | 41.15281 | 1.17964 | 242 ft | 12 kts | 69° |
| 2026-05-07 09:00 | 41.15313 | 1.18072 | 242 ft | 12 kts | 69° |
| 2026-05-07 09:00 | 41.15342 | 1.18176 | 242 ft | 12 kts | 73° |
| 2026-05-07 09:00 | 41.15298 | 1.18255 | 242 ft | 12 kts | 158° |
| 2026-05-07 09:01 | 41.15221 | 1.18286 | 242 ft | 12 kts | 184° |
| 2026-05-07 09:01 | 41.15175 | 1.18207 | 242 ft | 12 kts | 249° |
| 2026-05-07 09:01 | 41.15075 | 1.17864 | 242 ft | 79 kts | 249° |
| 2026-05-07 09:01 | 41.14780 | 1.16860 | 242 ft | 152 kts | 249° |
| 2026-05-07 09:02 | 41.14357 | 1.15412 | 725 ft | 173 kts | 249° |
| 2026-05-07 09:02 | 41.13807 | 1.13966 | 1561 ft | 181 kts | 235° |
| 2026-05-07 09:02 | 41.13109 | 1.12545 | 2361 ft | 188 kts | 236° |
| 2026-05-07 09:02 | 41.12390 | 1.11009 | 2937 ft | 209 kts | 237° |
| 2026-05-07 09:03 | 41.11594 | 1.09285 | 3358 ft | 224 kts | 238° |
| 2026-05-07 09:03 | 41.10745 | 1.07431 | 3680 ft | 248 kts | 238° |
| 2026-05-07 09:03 | 41.09813 | 1.05379 | 4161 ft | 266 kts | 238° |
| 2026-05-07 09:03 | 41.08863 | 1.03273 | 5115 ft | 266 kts | 239° |
| 2026-05-07 09:04 | 41.07912 | 1.01159 | 6019 ft | 268 kts | 239° |
| 2026-05-07 09:04 | 41.06951 | 0.99019 | 6849 ft | 272 kts | 239° |
| 2026-05-07 09:04 | 41.05989 | 0.96878 | 7688 ft | 274 kts | 239° |
| 2026-05-07 09:04 | 41.05006 | 0.94691 | 8525 ft | 277 kts | 239° |
| 2026-05-07 09:05 | 41.04010 | 0.92477 | 9352 ft | 280 kts | 239° |
| 2026-05-07 09:05 | 41.03450 | 0.90929 | 9893 ft | 283 kts | 254° |
| 2026-05-07 09:05 | 41.03556 | 0.87512 | 10936 ft | 286 kts | 289° |
| 2026-05-07 09:05 | 41.04584 | 0.85234 | 11679 ft | 293 kts | 313° |
| 2026-05-07 09:06 | 41.06283 | 0.83723 | 12424 ft | 300 kts | 339° |
| 2026-05-07 09:06 | 41.07636 | 0.83321 | 12940 ft | 303 kts | 354° |
| 2026-05-07 09:06 | 41.09764 | 0.83471 | 13577 ft | 315 kts | 6° |
| 2026-05-07 09:06 | 41.12015 | 0.83967 | 13755 ft | 338 kts | 9° |
| 2026-05-07 09:07 | 41.14394 | 0.84578 | 13947 ft | 359 kts | 10° |
| 2026-05-07 09:07 | 41.16899 | 0.85239 | 14397 ft | 369 kts | 10° |
| 2026-05-07 09:07 | 41.19442 | 0.85902 | 15028 ft | 374 kts | 10° |
| 2026-05-07 09:07 | 41.21988 | 0.86551 | 15698 ft | 377 kts | 9° |
| 2026-05-07 09:08 | 41.24573 | 0.87198 | 16322 ft | 381 kts | 9° |
| 2026-05-07 09:08 | 41.27201 | 0.87845 | 16963 ft | 386 kts | 9° |
| 2026-05-07 09:08 | 41.29858 | 0.88493 | 17583 ft | 390 kts | 9° |
| 2026-05-07 09:08 | 41.32538 | 0.89142 | 18207 ft | 394 kts | 9° |
| 2026-05-07 09:09 | 41.35252 | 0.89798 | 18766 ft | 398 kts | 9° |
| 2026-05-07 09:09 | 41.37999 | 0.90461 | 19316 ft | 401 kts | 9° |
| 2026-05-07 09:09 | 41.40736 | 0.91122 | 19848 ft | 405 kts | 9° |
| 2026-05-07 09:09 | 41.43525 | 0.91795 | 20375 ft | 409 kts | 9° |
| 2026-05-07 09:10 | 41.46347 | 0.92477 | 20902 ft | 413 kts | 8° |
| 2026-05-07 09:10 | 41.49188 | 0.93164 | 21428 ft | 416 kts | 8° |
| 2026-05-07 09:10 | 41.52050 | 0.93857 | 21938 ft | 420 kts | 8° |
| 2026-05-07 09:10 | 41.54917 | 0.94552 | 22440 ft | 423 kts | 8° |
| 2026-05-07 09:11 | 41.57831 | 0.95260 | 22948 ft | 427 kts | 8° |
| 2026-05-07 09:11 | 41.60774 | 0.95975 | 23445 ft | 430 kts | 8° |
| 2026-05-07 09:11 | 41.63740 | 0.96695 | 23881 ft | 434 kts | 8° |
| 2026-05-07 09:11 | 41.66724 | 0.97421 | 24267 ft | 437 kts | 8° |
| 2026-05-07 09:12 | 41.69698 | 0.98146 | 24671 ft | 440 kts | 8° |
| 2026-05-07 09:12 | 41.72725 | 0.98885 | 25058 ft | 443 kts | 8° |
| 2026-05-07 09:12 | 41.75779 | 0.99630 | 25429 ft | 447 kts | 8° |
| 2026-05-07 09:12 | 41.78850 | 1.00381 | 25848 ft | 449 kts | 8° |
| 2026-05-07 09:13 | 41.81933 | 1.01135 | 26239 ft | 451 kts | 8° |
| 2026-05-07 09:13 | 41.85035 | 1.01894 | 26600 ft | 454 kts | 8° |
| 2026-05-07 09:13 | 41.88124 | 1.02650 | 26923 ft | 458 kts | 8° |
| 2026-05-07 09:13 | 41.91271 | 1.03422 | 27266 ft | 461 kts | 8° |
| 2026-05-07 09:14 | 41.94443 | 1.04202 | 27656 ft | 463 kts | 7° |
| 2026-05-07 09:14 | 41.97625 | 1.04984 | 28022 ft | 465 kts | 7° |
| 2026-05-07 09:14 | 42.00794 | 1.05764 | 28366 ft | 468 kts | 7° |
| 2026-05-07 09:14 | 42.04016 | 1.06557 | 28693 ft | 470 kts | 7° |
| 2026-05-07 09:15 | 42.07254 | 1.07355 | 29013 ft | 473 kts | 7° |
| 2026-05-07 09:15 | 42.10512 | 1.08159 | 29327 ft | 476 kts | 7° |
| 2026-05-07 09:15 | 42.13733 | 1.08955 | 29636 ft | 478 kts | 7° |
| 2026-05-07 09:15 | 42.17025 | 1.09769 | 29956 ft | 480 kts | 7° |
| 2026-05-07 09:16 | 42.20322 | 1.10586 | 30241 ft | 482 kts | 7° |
| 2026-05-07 09:16 | 42.23629 | 1.11406 | 30563 ft | 483 kts | 7° |
| 2026-05-07 09:16 | 42.26944 | 1.12229 | 30922 ft | 482 kts | 7° |
| 2026-05-07 09:16 | 42.30190 | 1.13036 | 31346 ft | 479 kts | 7° |
| 2026-05-07 09:17 | 42.33475 | 1.13854 | 31686 ft | 479 kts | 7° |
| 2026-05-07 09:17 | 42.36764 | 1.14673 | 31964 ft | 479 kts | 7° |
| 2026-05-07 09:17 | 42.40047 | 1.15491 | 32266 ft | 479 kts | 7° |
| 2026-05-07 09:17 | 42.43295 | 1.16301 | 32628 ft | 478 kts | 7° |
| 2026-05-07 09:18 | 42.46569 | 1.17119 | 32960 ft | 477 kts | 7° |
| 2026-05-07 09:18 | 42.49843 | 1.17937 | 33280 ft | 477 kts | 7° |
| 2026-05-07 09:18 | 42.53111 | 1.18754 | 33565 ft | 477 kts | 7° |
| 2026-05-07 09:18 | 42.56382 | 1.19575 | 33879 ft | 477 kts | 7° |
| 2026-05-07 09:19 | 42.59651 | 1.20394 | 34159 ft | 476 kts | 7° |
| 2026-05-07 09:19 | 42.62864 | 1.21200 | 34415 ft | 475 kts | 7° |
| 2026-05-07 09:19 | 42.66122 | 1.22018 | 34656 ft | 475 kts | 7° |
| 2026-05-07 09:19 | 42.69375 | 1.22837 | 34874 ft | 475 kts | 7° |
| 2026-05-07 09:20 | 42.72612 | 1.23729 | 35120 ft | 475 kts | 12° |
| 2026-05-07 09:20 | 42.75765 | 1.25159 | 35351 ft | 477 kts | 19° |
| 2026-05-07 09:20 | 42.78843 | 1.26850 | 35584 ft | 477 kts | 20° |
| 2026-05-07 09:20 | 42.81912 | 1.28575 | 35844 ft | 476 kts | 20° |
| 2026-05-07 09:21 | 42.84930 | 1.30273 | 36025 ft | 475 kts | 20° |
| 2026-05-07 09:21 | 42.88005 | 1.31986 | 35989 ft | 478 kts | 19° |
| 2026-05-07 09:21 | 42.94170 | 1.35371 | 36007 ft | 475 kts | 19° |
| 2026-05-07 09:22 | 43.00271 | 1.38690 | 36008 ft | 472 kts | 19° |
| 2026-05-07 09:22 | 43.06365 | 1.42002 | 36015 ft | 470 kts | 19° |
| 2026-05-07 09:23 | 43.12440 | 1.45314 | 36019 ft | 468 kts | 19° |
| 2026-05-07 09:23 | 43.18463 | 1.48606 | 36020 ft | 468 kts | 19° |
| 2026-05-07 09:24 | 43.24530 | 1.51929 | 36026 ft | 469 kts | 19° |
| 2026-05-07 09:24 | 43.30606 | 1.55266 | 36029 ft | 470 kts | 19° |
| 2026-05-07 09:25 | 43.36688 | 1.58612 | 36038 ft | 472 kts | 19° |
| 2026-05-07 09:25 | 43.42758 | 1.61960 | 36041 ft | 473 kts | 19° |
| 2026-05-07 09:26 | 43.48888 | 1.65348 | 36038 ft | 475 kts | 19° |
| 2026-05-07 09:26 | 43.55038 | 1.68755 | 36039 ft | 476 kts | 19° |
| 2026-05-07 09:27 | 43.61160 | 1.72154 | 36036 ft | 476 kts | 19° |
| 2026-05-07 09:28 | 43.70383 | 1.77289 | 36031 ft | 476 kts | 19° |
| 2026-05-07 09:28 | 43.76527 | 1.80719 | 36033 ft | 475 kts | 19° |
| 2026-05-07 09:29 | 43.82622 | 1.84129 | 36025 ft | 474 kts | 19° |
| 2026-05-07 09:29 | 43.88741 | 1.87560 | 36029 ft | 473 kts | 19° |
| 2026-05-07 09:30 | 43.94848 | 1.90992 | 36027 ft | 472 kts | 19° |
| 2026-05-07 09:30 | 44.00893 | 1.94396 | 36028 ft | 471 kts | 19° |
| 2026-05-07 09:31 | 44.06980 | 1.97832 | 36029 ft | 470 kts | 19° |
| 2026-05-07 09:31 | 44.13002 | 2.01239 | 36026 ft | 470 kts | 19° |
| 2026-05-07 09:32 | 44.19075 | 2.04682 | 36026 ft | 470 kts | 19° |
| 2026-05-07 09:32 | 44.25129 | 2.08122 | 36034 ft | 470 kts | 19° |
| 2026-05-07 09:33 | 44.31199 | 2.11579 | 36033 ft | 470 kts | 19° |
| 2026-05-07 09:33 | 44.37228 | 2.15021 | 36044 ft | 470 kts | 19° |
| 2026-05-07 09:34 | 44.43293 | 2.18490 | 36040 ft | 471 kts | 19° |
| 2026-05-07 09:34 | 44.49362 | 2.21970 | 36035 ft | 471 kts | 19° |
| 2026-05-07 09:35 | 44.55393 | 2.25388 | 36045 ft | 470 kts | 18° |
| 2026-05-07 09:35 | 44.61499 | 2.28737 | 36032 ft | 470 kts | 18° |
| 2026-05-07 09:36 | 44.67602 | 2.32081 | 36023 ft | 470 kts | 18° |
| 2026-05-07 09:36 | 44.73677 | 2.35433 | 36023 ft | 469 kts | 18° |
| 2026-05-07 09:37 | 44.79736 | 2.38793 | 36021 ft | 469 kts | 18° |
| 2026-05-07 09:37 | 44.85810 | 2.42170 | 36024 ft | 469 kts | 18° |
| 2026-05-07 09:38 | 44.91882 | 2.45555 | 36023 ft | 469 kts | 18° |
| 2026-05-07 09:38 | 44.97957 | 2.48948 | 36021 ft | 468 kts | 18° |
| 2026-05-07 09:39 | 45.03980 | 2.52320 | 36024 ft | 468 kts | 18° |
| 2026-05-07 09:39 | 45.10042 | 2.55721 | 36027 ft | 467 kts | 18° |
| 2026-05-07 09:40 | 45.16074 | 2.59112 | 36022 ft | 467 kts | 18° |
| 2026-05-07 09:40 | 45.22135 | 2.62529 | 36014 ft | 467 kts | 18° |
| 2026-05-07 09:41 | 45.28134 | 2.65919 | 36023 ft | 466 kts | 18° |
| 2026-05-07 09:41 | 45.34155 | 2.69328 | 36030 ft | 465 kts | 18° |
| 2026-05-07 09:42 | 45.40180 | 2.72747 | 36022 ft | 465 kts | 18° |
| 2026-05-07 09:42 | 45.46169 | 2.76154 | 36022 ft | 465 kts | 18° |
| 2026-05-07 09:43 | 45.52199 | 2.79591 | 36033 ft | 465 kts | 19° |
| 2026-05-07 09:43 | 45.58180 | 2.83009 | 36039 ft | 465 kts | 19° |
| 2026-05-07 09:44 | 45.64189 | 2.86451 | 36032 ft | 465 kts | 19° |
| 2026-05-07 09:44 | 45.70198 | 2.89901 | 36049 ft | 465 kts | 19° |
| 2026-05-07 09:45 | 45.76193 | 2.93351 | 36053 ft | 465 kts | 19° |
| 2026-05-07 09:45 | 45.82207 | 2.96820 | 36047 ft | 465 kts | 19° |
| 2026-05-07 09:46 | 45.88214 | 3.00293 | 36045 ft | 464 kts | 19° |
| 2026-05-07 09:46 | 45.94143 | 3.03729 | 36050 ft | 463 kts | 19° |
| 2026-05-07 09:47 | 46.00123 | 3.07203 | 36046 ft | 462 kts | 19° |
| 2026-05-07 09:47 | 46.06076 | 3.10668 | 36054 ft | 462 kts | 19° |
| 2026-05-07 09:48 | 46.12047 | 3.14152 | 36055 ft | 461 kts | 19° |
| 2026-05-07 09:48 | 46.17956 | 3.17608 | 36053 ft | 461 kts | 19° |
| 2026-05-07 09:49 | 46.23920 | 3.21105 | 36052 ft | 461 kts | 19° |
| 2026-05-07 09:49 | 46.29851 | 3.24591 | 36049 ft | 461 kts | 19° |
| 2026-05-07 09:50 | 46.35795 | 3.28092 | 36052 ft | 461 kts | 19° |
| 2026-05-07 09:50 | 46.41742 | 3.31603 | 36050 ft | 461 kts | 19° |
| 2026-05-07 09:51 | 46.47687 | 3.35123 | 36051 ft | 461 kts | 19° |
| 2026-05-07 09:51 | 46.53630 | 3.38649 | 36050 ft | 460 kts | 19° |
| 2026-05-07 09:52 | 46.59521 | 3.42152 | 36049 ft | 460 kts | 19° |
| 2026-05-07 09:52 | 46.65286 | 3.46241 | 36044 ft | 464 kts | 32° |
| 2026-05-07 09:53 | 46.70150 | 3.52437 | 36056 ft | 466 kts | 42° |
| 2026-05-07 09:53 | 46.74781 | 3.59003 | 36048 ft | 466 kts | 42° |
| 2026-05-07 09:54 | 46.79463 | 3.65586 | 36047 ft | 466 kts | 42° |
| 2026-05-07 09:54 | 46.84129 | 3.72097 | 36041 ft | 465 kts | 41° |
| 2026-05-07 09:55 | 46.88824 | 3.78644 | 36052 ft | 465 kts | 41° |
| 2026-05-07 09:55 | 46.92714 | 3.84079 | 36048 ft | 465 kts | 41° |
| 2026-05-07 09:56 | 46.97383 | 3.90622 | 36048 ft | 464 kts | 41° |
| 2026-05-07 09:56 | 47.02055 | 3.97186 | 36048 ft | 464 kts | 41° |
| 2026-05-07 09:57 | 47.06678 | 4.03700 | 36055 ft | 463 kts | 42° |
| 2026-05-07 09:57 | 47.11325 | 4.10264 | 36045 ft | 463 kts | 42° |
| 2026-05-07 09:58 | 47.15958 | 4.16825 | 36055 ft | 462 kts | 42° |
| 2026-05-07 09:58 | 47.20587 | 4.23396 | 36052 ft | 461 kts | 42° |
| 2026-05-07 09:59 | 47.25167 | 4.29914 | 36051 ft | 461 kts | 42° |
| 2026-05-07 09:59 | 47.29782 | 4.36499 | 36049 ft | 460 kts | 42° |
| 2026-05-07 10:00 | 47.34379 | 4.43074 | 36051 ft | 460 kts | 42° |
| 2026-05-07 10:00 | 47.38941 | 4.49618 | 36055 ft | 460 kts | 42° |
| 2026-05-07 10:01 | 47.43519 | 4.56200 | 36053 ft | 459 kts | 42° |
| 2026-05-07 10:01 | 47.48102 | 4.62807 | 36052 ft | 459 kts | 43° |
| 2026-05-07 10:02 | 47.52662 | 4.69397 | 36051 ft | 459 kts | 43° |
| 2026-05-07 10:02 | 47.57220 | 4.76002 | 36052 ft | 459 kts | 43° |
| 2026-05-07 10:03 | 47.61785 | 4.82634 | 36052 ft | 459 kts | 43° |
| 2026-05-07 10:03 | 47.66320 | 4.89238 | 36053 ft | 459 kts | 43° |
| 2026-05-07 10:04 | 47.70872 | 4.95887 | 36046 ft | 459 kts | 43° |
| 2026-05-07 10:04 | 47.75404 | 5.02522 | 36057 ft | 459 kts | 43° |
| 2026-05-07 10:05 | 47.79954 | 5.09201 | 36058 ft | 459 kts | 43° |
| 2026-05-07 10:05 | 47.84513 | 5.15910 | 36056 ft | 461 kts | 43° |
| 2026-05-07 10:06 | 47.89148 | 5.22546 | 36041 ft | 461 kts | 36° |
| 2026-05-07 10:06 | 47.94661 | 5.27282 | 36040 ft | 457 kts | 18° |
| 2026-05-07 10:07 | 48.00628 | 5.30374 | 36048 ft | 457 kts | 17° |
| 2026-05-07 10:07 | 48.06655 | 5.33520 | 36047 ft | 457 kts | 18° |
| 2026-05-07 10:08 | 48.12652 | 5.36719 | 36054 ft | 457 kts | 18° |
| 2026-05-07 10:08 | 48.18593 | 5.39921 | 36051 ft | 456 kts | 18° |
| 2026-05-07 10:09 | 48.24577 | 5.43158 | 36051 ft | 455 kts | 18° |
| 2026-05-07 10:09 | 48.30532 | 5.46387 | 36056 ft | 454 kts | 18° |
| 2026-05-07 10:10 | 48.36475 | 5.49615 | 36058 ft | 453 kts | 18° |
| 2026-05-07 10:10 | 48.42372 | 5.52826 | 36055 ft | 453 kts | 18° |
| 2026-05-07 10:11 | 48.48309 | 5.56067 | 36049 ft | 453 kts | 18° |
| 2026-05-07 10:11 | 48.54200 | 5.59290 | 36050 ft | 452 kts | 18° |
| 2026-05-07 10:12 | 48.60122 | 5.62538 | 36050 ft | 452 kts | 18° |
| 2026-05-07 10:12 | 48.66038 | 5.65792 | 36053 ft | 452 kts | 18° |
| 2026-05-07 10:13 | 48.71969 | 5.69062 | 36045 ft | 453 kts | 19° |
| 2026-05-07 10:13 | 48.77862 | 5.72319 | 36047 ft | 453 kts | 19° |
| 2026-05-07 10:14 | 48.83801 | 5.75610 | 36046 ft | 454 kts | 19° |
| 2026-05-07 10:14 | 48.89740 | 5.78909 | 36042 ft | 455 kts | 19° |
| 2026-05-07 10:15 | 48.95676 | 5.82215 | 36041 ft | 455 kts | 19° |
| 2026-05-07 10:15 | 49.01604 | 5.85525 | 36042 ft | 456 kts | 19° |
| 2026-05-07 10:16 | 49.07591 | 5.88877 | 36044 ft | 457 kts | 19° |
| 2026-05-07 10:16 | 49.13560 | 5.92227 | 36044 ft | 457 kts | 19° |
| 2026-05-07 10:17 | 49.19518 | 5.95579 | 36039 ft | 458 kts | 19° |
| 2026-05-07 10:17 | 49.25505 | 5.98957 | 36037 ft | 458 kts | 19° |
| 2026-05-07 10:18 | 49.31494 | 6.02344 | 36041 ft | 458 kts | 19° |
| 2026-05-07 10:18 | 49.36475 | 6.05169 | 36037 ft | 458 kts | 19° |
| 2026-05-07 10:19 | 49.42057 | 6.08340 | 36041 ft | 458 kts | 19° |
| 2026-05-07 10:19 | 49.48137 | 6.11280 | 36039 ft | 456 kts | 8° |
| 2026-05-07 10:20 | 49.54449 | 6.11718 | 35978 ft | 455 kts | 358° |
| 2026-05-07 10:20 | 49.57627 | 6.11676 | 35670 ft | 455 kts | 358° |
| 2026-05-07 10:20 | 49.60734 | 6.11642 | 35288 ft | 449 kts | 358° |
| 2026-05-07 10:20 | 49.63863 | 6.11623 | 34752 ft | 448 kts | 359° |
| 2026-05-07 10:21 | 49.66990 | 6.11619 | 34198 ft | 448 kts | 359° |
| 2026-05-07 10:21 | 49.70110 | 6.11626 | 33561 ft | 447 kts | 359° |
| 2026-05-07 10:21 | 49.73188 | 6.11641 | 32881 ft | 447 kts | 359° |
| 2026-05-07 10:21 | 49.76319 | 6.11658 | 32168 ft | 448 kts | 359° |
| 2026-05-07 10:22 | 49.79437 | 6.11677 | 31542 ft | 447 kts | 359° |
| 2026-05-07 10:22 | 49.82527 | 6.11696 | 31118 ft | 441 kts | 359° |
| 2026-05-07 10:22 | 49.85581 | 6.11715 | 30647 ft | 436 kts | 359° |
| 2026-05-07 10:22 | 49.88629 | 6.11733 | 30211 ft | 439 kts | 359° |
| 2026-05-07 10:23 | 49.91673 | 6.11750 | 29728 ft | 446 kts | 359° |
| 2026-05-07 10:23 | 49.94795 | 6.11768 | 29219 ft | 451 kts | 359° |
| 2026-05-07 10:23 | 49.97944 | 6.11786 | 28705 ft | 451 kts | 359° |
| 2026-05-07 10:23 | 50.01080 | 6.11804 | 28210 ft | 450 kts | 359° |
| 2026-05-07 10:24 | 50.04218 | 6.11822 | 27716 ft | 450 kts | 359° |
| 2026-05-07 10:24 | 50.07351 | 6.11840 | 27235 ft | 450 kts | 359° |
| 2026-05-07 10:24 | 50.10497 | 6.11858 | 26766 ft | 452 kts | 359° |
| 2026-05-07 10:24 | 50.13655 | 6.11876 | 26313 ft | 456 kts | 359° |
| 2026-05-07 10:25 | 50.16848 | 6.11894 | 25858 ft | 460 kts | 359° |
| 2026-05-07 10:25 | 50.20034 | 6.11913 | 25399 ft | 456 kts | 359° |
| 2026-05-07 10:25 | 50.23158 | 6.11931 | 24970 ft | 452 kts | 359° |
| 2026-05-07 10:25 | 50.26293 | 6.11950 | 24519 ft | 449 kts | 359° |
| 2026-05-07 10:26 | 50.29407 | 6.11968 | 24093 ft | 446 kts | 359° |
| 2026-05-07 10:26 | 50.32512 | 6.11986 | 23677 ft | 444 kts | 359° |
| 2026-05-07 10:26 | 50.35599 | 6.12004 | 23180 ft | 442 kts | 359° |
| 2026-05-07 10:26 | 50.38663 | 6.12022 | 22681 ft | 437 kts | 359° |
| 2026-05-07 10:27 | 50.41689 | 6.12040 | 22024 ft | 433 kts | 359° |
| 2026-05-07 10:27 | 50.44692 | 6.12057 | 21321 ft | 430 kts | 359° |
| 2026-05-07 10:27 | 50.47643 | 6.12074 | 20592 ft | 428 kts | 359° |
| 2026-05-07 10:27 | 50.50592 | 6.12092 | 20233 ft | 417 kts | 359° |
| 2026-05-07 10:28 | 50.53437 | 6.12110 | 20130 ft | 401 kts | 359° |
| 2026-05-07 10:28 | 50.56208 | 6.12128 | 19728 ft | 395 kts | 359° |
| 2026-05-07 10:28 | 50.58956 | 6.12144 | 19152 ft | 394 kts | 359° |
| 2026-05-07 10:28 | 50.61704 | 6.12159 | 18594 ft | 393 kts | 359° |
| 2026-05-07 10:29 | 50.64434 | 6.12174 | 18067 ft | 390 kts | 359° |
| 2026-05-07 10:29 | 50.67108 | 6.12190 | 17544 ft | 386 kts | 359° |
| 2026-05-07 10:29 | 50.69799 | 6.12205 | 17032 ft | 383 kts | 359° |
| 2026-05-07 10:30 | 50.75049 | 6.12235 | 16006 ft | 377 kts | 359° |
| 2026-05-07 10:30 | 50.77667 | 6.12251 | 15507 ft | 374 kts | 359° |
| 2026-05-07 10:30 | 50.80269 | 6.12266 | 15045 ft | 372 kts | 359° |
| 2026-05-07 10:30 | 50.82845 | 6.12282 | 14648 ft | 367 kts | 359° |
| 2026-05-07 10:31 | 50.85344 | 6.12298 | 14591 ft | 352 kts | 359° |
| 2026-05-07 10:31 | 50.87773 | 6.12313 | 14276 ft | 347 kts | 359° |
| 2026-05-07 10:31 | 50.90190 | 6.12326 | 13869 ft | 346 kts | 359° |
| 2026-05-07 10:31 | 50.92599 | 6.12340 | 13413 ft | 344 kts | 359° |
| 2026-05-07 10:32 | 50.94960 | 6.12353 | 13001 ft | 341 kts | 359° |
| 2026-05-07 10:32 | 50.97315 | 6.12366 | 12693 ft | 335 kts | 359° |
| 2026-05-07 10:32 | 50.99629 | 6.12381 | 12408 ft | 329 kts | 359° |
| 2026-05-07 10:32 | 51.01911 | 6.12395 | 12123 ft | 325 kts | 359° |
| 2026-05-07 10:33 | 51.04157 | 6.12408 | 11841 ft | 319 kts | 359° |
| 2026-05-07 10:33 | 51.06349 | 6.12421 | 11660 ft | 311 kts | 359° |
| 2026-05-07 10:33 | 51.08486 | 6.12434 | 11481 ft | 303 kts | 359° |
| 2026-05-07 10:33 | 51.10574 | 6.12446 | 11293 ft | 296 kts | 359° |
| 2026-05-07 10:34 | 51.12598 | 6.12458 | 11106 ft | 290 kts | 360° |
| 2026-05-07 10:34 | 51.14603 | 6.12469 | 10892 ft | 285 kts | 360° |
| 2026-05-07 10:34 | 51.16590 | 6.12481 | 10543 ft | 286 kts | 360° |
| 2026-05-07 10:34 | 51.18569 | 6.12574 | 10284 ft | 283 kts | 8° |
| 2026-05-07 10:35 | 51.20397 | 6.13667 | 9966 ft | 283 kts | 33° |
| 2026-05-07 10:35 | 51.21860 | 6.15686 | 9679 ft | 281 kts | 44° |
| 2026-05-07 10:35 | 51.23253 | 6.17882 | 9328 ft | 281 kts | 44° |
| 2026-05-07 10:35 | 51.24634 | 6.20059 | 9031 ft | 279 kts | 44° |
| 2026-05-07 10:36 | 51.26017 | 6.22228 | 8731 ft | 277 kts | 43° |
| 2026-05-07 10:36 | 51.27029 | 6.23811 | 8518 ft | 276 kts | 43° |
| 2026-05-07 10:36 | 51.28399 | 6.25948 | 8226 ft | 275 kts | 43° |
| 2026-05-07 10:36 | 51.29764 | 6.28073 | 7932 ft | 273 kts | 43° |
| 2026-05-07 10:37 | 51.31125 | 6.30188 | 7645 ft | 272 kts | 43° |
| 2026-05-07 10:37 | 51.32465 | 6.32311 | 7372 ft | 270 kts | 44° |
| 2026-05-07 10:37 | 51.33776 | 6.34449 | 7169 ft | 266 kts | 45° |
| 2026-05-07 10:37 | 51.35046 | 6.36530 | 7089 ft | 256 kts | 45° |
| 2026-05-07 10:38 | 51.36265 | 6.38539 | 7005 ft | 248 kts | 45° |
| 2026-05-07 10:38 | 51.36313 | 6.38618 | 7000 ft | 248 kts | 45° |
| 2026-05-07 10:39 | 51.36564 | 6.39033 | 6986 ft | 247 kts | 45° |
| 2026-05-07 10:39 | 51.37748 | 6.40987 | 6875 ft | 241 kts | 45° |
| 2026-05-07 10:39 | 51.38900 | 6.42894 | 6690 ft | 237 kts | 45° |
| 2026-05-07 10:39 | 51.40041 | 6.44787 | 6511 ft | 235 kts | 45° |
| 2026-05-07 10:40 | 51.41176 | 6.46664 | 6313 ft | 232 kts | 45° |
| 2026-05-07 10:40 | 51.42292 | 6.48512 | 6090 ft | 231 kts | 44° |
| 2026-05-07 10:40 | 51.43397 | 6.50340 | 5879 ft | 230 kts | 45° |
| 2026-05-07 10:40 | 51.44509 | 6.52190 | 5601 ft | 231 kts | 45° |
| 2026-05-07 10:41 | 51.45615 | 6.54032 | 5421 ft | 227 kts | 45° |
| 2026-05-07 10:41 | 51.46872 | 6.55575 | 5079 ft | 230 kts | 20° |
| 2026-05-07 10:41 | 51.48426 | 6.55951 | 4946 ft | 223 kts | 1° |
| 2026-05-07 10:41 | 51.49958 | 6.55919 | 4817 ft | 218 kts | 359° |
| 2026-05-07 10:42 | 51.51466 | 6.55853 | 4507 ft | 221 kts | 359° |
| 2026-05-07 10:42 | 51.53025 | 6.55778 | 4173 ft | 225 kts | 359° |
| 2026-05-07 10:42 | 51.54585 | 6.55556 | 3862 ft | 226 kts | 345° |
| 2026-05-07 10:42 | 51.55907 | 6.54245 | 3532 ft | 226 kts | 313° |
| 2026-05-07 10:43 | 51.56633 | 6.52039 | 3388 ft | 219 kts | 293° |
| 2026-05-07 10:43 | 51.57188 | 6.49787 | 3152 ft | 214 kts | 295° |
| 2026-05-07 10:43 | 51.57551 | 6.48338 | 3092 ft | 207 kts | 295° |
| 2026-05-07 10:43 | 51.58244 | 6.45572 | 3003 ft | 196 kts | 295° |
| 2026-05-07 10:44 | 51.58742 | 6.43552 | 3004 ft | 191 kts | 295° |
| 2026-05-07 10:44 | 51.59064 | 6.42233 | 3000 ft | 184 kts | 295° |
| 2026-05-07 10:44 | 51.59564 | 6.39677 | 2986 ft | 181 kts | 282° |
| 2026-05-07 10:44 | 51.59704 | 6.37657 | 2920 ft | 185 kts | 279° |
| 2026-05-07 10:45 | 51.59793 | 6.35582 | 2700 ft | 187 kts | 276° |
| 2026-05-07 10:45 | 51.59828 | 6.34184 | 2535 ft | 182 kts | 276° |
| 2026-05-07 10:45 | 51.59864 | 6.32215 | 2307 ft | 173 kts | 276° |
| 2026-05-07 10:45 | 51.59903 | 6.30311 | 2072 ft | 167 kts | 276° |
| 2026-05-07 10:46 | 51.59941 | 6.28459 | 1839 ft | 165 kts | 277° |
| 2026-05-07 10:46 | 51.59980 | 6.26625 | 1644 ft | 161 kts | 277° |
| 2026-05-07 10:46 | 51.60009 | 6.24890 | 1433 ft | 149 kts | 274° |
| 2026-05-07 10:46 | 51.60044 | 6.23236 | 1178 ft | 145 kts | 277° |
| 2026-05-07 10:47 | 51.60087 | 6.21620 | 928 ft | 145 kts | 275° |
| 2026-05-07 10:47 | 51.60118 | 6.20005 | 681 ft | 143 kts | 275° |
| 2026-05-07 10:47 | 51.60154 | 6.18406 | 436 ft | 143 kts | 274° |
| 2026-05-07 10:47 | 51.60186 | 6.16801 | 269 ft | 144 kts | 274° |
| 2026-05-07 10:48 | 51.60221 | 6.15201 | 119 ft | 138 kts | 275° |
| 2026-05-07 10:48 | 51.60253 | 6.13929 | 115 ft | 91 kts | 271° |
| 2026-05-07 10:48 | 51.60270 | 6.13197 | 112 ft | 42 kts | 272° |
| 2026-05-07 10:48 | 51.60253 | 6.12958 | 109 ft | 1 kts | 200° |
| 2026-05-07 10:49 | 51.60239 | 6.12958 | 110 ft | 4 kts | 185° |
| 2026-05-07 10:49 | 51.60201 | 6.12955 | 108 ft | 7 kts | 182° |
| 2026-05-07 10:49 | 51.60149 | 6.12952 | 107 ft | 8 kts | 181° |
| 2026-05-07 10:49 | 51.60096 | 6.12960 | 107 ft | 8 kts | 149° |
| 2026-05-07 10:50 | 51.60081 | 6.13039 | 108 ft | 8 kts | 92° |
| 2026-05-07 10:50 | 51.60079 | 6.13123 | 108 ft | 7 kts | 92° |
| 2026-05-07 10:50 | 51.60077 | 6.13205 | 109 ft | 7 kts | 92° |
| 2026-05-07 10:50 | 51.60076 | 6.13282 | 110 ft | 7 kts | 91° |
| 2026-05-07 10:51 | 51.60075 | 6.13359 | 110 ft | 7 kts | 92° |
| 2026-05-07 10:51 | 51.60072 | 6.13434 | 111 ft | 7 kts | 92° |
| 2026-05-07 10:51 | 51.60071 | 6.13509 | 111 ft | 7 kts | 91° |
| 2026-05-07 10:51 | 51.60070 | 6.13581 | 111 ft | 6 kts | 92° |
| 2026-05-07 10:52 | 51.60068 | 6.13656 | 112 ft | 7 kts | 92° |
| 2026-05-07 10:52 | 51.60066 | 6.13752 | 112 ft | 10 kts | 95° |
| 2026-05-07 10:52 | 51.60062 | 6.13877 | 113 ft | 13 kts | 92° |
| 2026-05-07 10:52 | 51.60059 | 6.14041 | 112 ft | 17 kts | 92° |
| 2026-05-07 10:53 | 51.60054 | 6.14233 | 110 ft | 17 kts | 91° |
| 2026-05-07 10:53 | 51.60050 | 6.14422 | 110 ft | 17 kts | 92° |
| 2026-05-07 10:53 | 51.60049 | 6.14605 | 108 ft | 16 kts | 82° |
| 2026-05-07 10:53 | 51.60046 | 6.14759 | 110 ft | 8 kts | 91° |
| 2026-05-07 10:54 | 51.60021 | 6.14798 | 111 ft | 4 kts | 172° |
| 2026-05-07 10:54 | 51.59997 | 6.14813 | 111 ft | 4 kts | 124° |
| 2026-05-07 10:54 | 51.59995 | 6.14860 | 112 ft | 4 kts | 92° |
| 2026-05-07 10:54 | 51.59995 | 6.14868 | 112 ft | 0 kts | 92° |